SULAYMANIYAH INTERNATIONAL AIRPORT
  • SulyAir
  • SulyAir
1 1
Arrival

ArrivalsMore >>

Departure

DeparturesMore >>

TAF

TAF ORSU 171700Z 1718/1818 31008KT CAVOK
BECMG 1808/1810 25010KT 9999 FEW045 SCT180=

METARs

METAR ORSU 171700Z 32008KT CAVOK 15/07 Q1019=